createdAt,value
2017-12-22T04:31:07.997Z,14.25
2017-12-22T04:33:36.336Z,14.73
2017-12-22T04:36:03.912Z,12.10
2017-12-22T04:38:31.532Z,12.95
2017-12-22T04:40:59.113Z,14.00
2017-12-22T04:43:26.693Z,14.40
2017-12-22T04:45:54.322Z,13.23
2017-12-22T04:48:21.901Z,14.48
2017-12-22T04:50:49.486Z,14.05
2017-12-22T04:53:17.854Z,13.93
2017-12-22T04:55:45.481Z,12.23
2017-12-22T04:58:13.053Z,14.23
2017-12-22T05:00:40.626Z,13.15
2017-12-22T05:03:09.753Z,14.02
2017-12-22T05:05:37.329Z,13.95
2017-12-22T05:08:04.906Z,13.23
2017-12-22T05:10:32.507Z,13.30
2017-12-22T05:13:00.845Z,14.23
2017-12-22T05:15:28.478Z,14.40
2017-12-22T05:17:56.062Z,14.55
2017-12-22T05:20:23.633Z,14.05
2017-12-22T05:22:51.266Z,15.02
2017-12-22T05:25:18.846Z,13.05
2017-12-22T05:27:46.426Z,14.70
2017-12-22T05:30:14.021Z,15.35
2017-12-22T05:32:41.710Z,15.25
2017-12-22T05:35:09.304Z,14.77
2017-12-22T05:37:36.877Z,16.45
2017-12-22T05:40:05.217Z,13.57
2017-12-22T05:42:32.829Z,14.87
2017-12-22T05:45:01.174Z,15.50
2017-12-22T05:47:28.753Z,14.85
2017-12-22T05:49:57.125Z,15.40
2017-12-22T05:52:25.470Z,16.90
2017-12-22T05:54:53.045Z,17.08
2017-12-22T05:57:20.670Z,15.52
2017-12-22T05:59:48.253Z,17.15
2017-12-22T06:02:16.629Z,18.10
2017-12-22T06:04:44.258Z,15.80
2017-12-22T06:07:11.845Z,18.37
2017-12-22T06:09:39.432Z,17.33
2017-12-22T06:12:07.801Z,17.77
2017-12-22T06:14:35.429Z,17.87
2017-12-22T06:17:03.006Z,17.55
2017-12-22T06:19:30.586Z,17.70
2017-12-22T06:21:58.970Z,16.85
2017-12-22T06:24:27.313Z,18.00
2017-12-22T06:26:54.894Z,16.95
2017-12-22T06:29:22.514Z,15.95
2017-12-22T06:31:50.101Z,16.65
2017-12-22T06:34:17.712Z,16.85
2017-12-22T06:36:45.293Z,15.63
2017-12-22T06:39:12.877Z,15.60
2017-12-22T06:41:40.510Z,16.50
2017-12-22T06:44:08.114Z,16.52
2017-12-22T06:46:36.453Z,16.25
2017-12-22T06:49:04.064Z,19.08
2017-12-22T06:51:32.406Z,20.20
2017-12-22T06:54:00.061Z,18.50
2017-12-22T06:56:27.799Z,20.08
2017-12-22T06:58:55.377Z,22.83
2017-12-22T07:01:22.961Z,23.35
2017-12-22T07:03:50.618Z,17.20
2017-12-22T07:06:18.197Z,17.12
2017-12-22T07:08:46.542Z,16.58
2017-12-22T07:11:14.157Z,14.82
2017-12-22T07:13:41.737Z,16.83
2017-12-22T07:16:09.313Z,16.60
2017-12-22T07:18:36.925Z,17.65
2017-12-22T07:21:04.506Z,16.37
2017-12-22T07:23:32.089Z,17.75
2017-12-22T07:25:59.702Z,16.10
2017-12-22T07:28:27.285Z,16.62
2017-12-22T07:30:54.866Z,15.45
2017-12-22T07:33:22.477Z,18.00
2017-12-22T07:35:50.050Z,16.80
2017-12-22T07:38:17.641Z,15.35
2017-12-22T07:40:45.246Z,15.88
2017-12-22T07:43:12.826Z,16.45
2017-12-22T07:45:40.405Z,15.73
2017-12-22T07:48:08.017Z,16.65
2017-12-22T07:50:36.358Z,15.65
2017-12-22T07:53:03.986Z,17.62
2017-12-22T07:55:31.566Z,16.40
2017-12-22T07:57:59.147Z,15.70
2017-12-22T08:00:26.745Z,17.35
2017-12-22T08:02:54.326Z,17.65
2017-12-22T08:05:21.905Z,17.50
2017-12-22T08:07:49.518Z,18.27
2017-12-22T08:10:17.097Z,16.15
2017-12-22T08:12:44.781Z,16.00
2017-12-22T08:15:12.423Z,15.45
2017-12-22T08:17:40.007Z,18.10
2017-12-22T08:20:07.614Z,15.82
2017-12-22T08:22:35.189Z,15.40
2017-12-22T08:25:02.794Z,16.60
2017-12-22T08:27:31.189Z,17.87
2017-12-22T08:29:59.533Z,16.92
2017-12-22T08:32:27.114Z,16.75
2017-12-22T08:34:54.737Z,15.80
2017-12-22T08:37:22.313Z,16.02
2017-12-22T08:39:49.903Z,16.42
2017-12-22T08:42:18.268Z,17.52
2017-12-22T08:44:45.855Z,16.15
2017-12-22T08:47:13.469Z,16.58
2017-12-22T08:49:41.053Z,15.98
2017-12-22T08:52:09.402Z,17.50
2017-12-22T08:54:37.006Z,17.08
2017-12-22T08:57:04.586Z,16.25
2017-12-22T08:59:32.163Z,17.20
2017-12-22T09:01:59.790Z,15.77
2017-12-22T09:04:27.370Z,17.80
2017-12-22T09:06:54.945Z,15.90
2017-12-22T09:09:22.563Z,17.83
2017-12-22T09:11:50.143Z,18.37
2017-12-22T09:14:17.722Z,17.23
2017-12-22T09:16:45.333Z,16.52
2017-12-22T09:19:12.910Z,17.77
2017-12-22T09:21:40.494Z,20.25
2017-12-22T09:24:08.134Z,20.23
2017-12-22T09:26:35.709Z,19.58
2017-12-22T09:29:03.286Z,17.30
2017-12-22T09:31:30.930Z,17.83
2017-12-22T09:33:58.513Z,19.98
2017-12-22T09:36:26.094Z,18.58
2017-12-22T09:38:54.462Z,19.33
2017-12-22T09:41:22.857Z,18.23
2017-12-22T09:43:51.246Z,18.90
2017-12-22T09:46:18.862Z,18.00
2017-12-22T09:48:46.491Z,18.12
2017-12-22T09:51:14.069Z,17.70
2017-12-22T09:53:41.651Z,19.23
2017-12-22T09:56:10.238Z,18.77
2017-12-22T09:58:38.577Z,18.17
2017-12-22T10:01:06.158Z,17.83
2017-12-22T10:03:33.778Z,17.87
2017-12-22T10:06:01.361Z,17.48
2017-12-22T10:08:28.933Z,19.10
2017-12-22T10:10:56.546Z,17.65
2017-12-22T10:13:24.121Z,19.80
2017-12-22T10:15:51.705Z,19.98
2017-12-22T10:18:19.324Z,20.60
2017-12-22T10:20:46.910Z,19.73
2017-12-22T10:23:14.516Z,19.65
2017-12-22T10:25:42.906Z,19.40
2017-12-22T10:28:10.490Z,19.70
2017-12-22T10:30:38.065Z,20.10
2017-12-22T10:33:05.665Z,20.02
2017-12-22T10:35:34.037Z,19.50
2017-12-22T10:38:02.382Z,21.23
2017-12-22T10:40:29.961Z,20.30
2017-12-22T10:42:57.577Z,21.27
2017-12-22T10:45:25.158Z,21.12
2017-12-22T10:47:52.737Z,21.02
2017-12-22T10:50:20.342Z,21.70
2017-12-22T10:52:47.925Z,22.98
2017-12-22T10:55:15.541Z,23.70
2017-12-22T10:57:43.126Z,23.67
2017-12-22T11:00:10.714Z,23.70
2017-12-22T11:02:38.317Z,21.87
2017-12-22T11:05:05.898Z,23.17
2017-12-22T11:07:33.533Z,24.10
2017-12-22T11:10:01.878Z,23.00
2017-12-22T11:12:29.456Z,23.23
2017-12-22T11:14:57.850Z,24.17
2017-12-22T11:17:25.429Z,23.15
2017-12-22T11:19:53.001Z,22.70
2017-12-22T11:22:20.667Z,22.23
2017-12-22T11:24:48.246Z,22.37
2017-12-22T11:27:15.829Z,21.65
2017-12-22T11:29:44.205Z,24.40
2017-12-22T11:32:12.549Z,24.65
2017-12-22T11:34:40.129Z,26.40
2017-12-22T11:37:08.491Z,25.23
2017-12-22T11:39:36.132Z,25.95
2017-12-22T11:42:03.942Z,24.48
2017-12-22T11:44:32.282Z,26.10
2017-12-22T11:46:59.989Z,24.35
2017-12-22T11:49:27.569Z,26.27
2017-12-22T11:51:55.180Z,23.42
2017-12-22T11:54:22.761Z,22.92
2017-12-22T11:56:51.106Z,22.85
2017-12-22T11:59:19.474Z,23.73
2017-12-22T12:01:47.051Z,24.27
2017-12-22T12:04:14.634Z,25.12
2017-12-22T12:06:43.006Z,25.48
2017-12-22T12:09:11.354Z,24.67
2017-12-22T12:11:38.933Z,24.40
2017-12-22T12:14:07.318Z,22.90
2017-12-22T12:16:35.662Z,23.50
2017-12-22T12:19:03.251Z,24.45
2017-12-22T12:21:31.621Z,26.15
2017-12-22T12:23:59.198Z,23.58
2017-12-22T12:26:27.545Z,24.55
2017-12-22T12:28:55.142Z,24.08
2017-12-22T12:31:22.751Z,24.80
2017-12-22T12:33:50.365Z,24.27
2017-12-22T12:36:17.941Z,22.85
2017-12-22T12:38:45.521Z,22.40
2017-12-22T12:41:13.157Z,22.52
2017-12-22T12:43:40.734Z,25.70
2017-12-22T12:46:08.317Z,23.23
2017-12-22T12:48:36.104Z,23.55
2017-12-22T12:51:04.454Z,24.37
2017-12-22T12:53:32.037Z,26.00
2017-12-22T12:56:00.422Z,22.87
2017-12-22T12:58:28.773Z,24.37
2017-12-22T13:00:56.358Z,23.90
2017-12-22T13:03:24.730Z,23.48
2017-12-22T13:05:53.069Z,23.95
2017-12-22T13:08:20.647Z,23.85
2017-12-22T13:10:48.255Z,26.80
2017-12-22T13:13:15.837Z,26.77
2017-12-22T13:15:43.457Z,26.48
2017-12-22T13:18:11.032Z,28.00
2017-12-22T13:20:38.605Z,25.65
2017-12-22T13:23:06.209Z,26.52
2017-12-22T13:25:34.558Z,26.50
2017-12-22T13:28:02.142Z,26.80
2017-12-22T13:30:30.540Z,26.17
2017-12-22T13:32:58.901Z,26.27
2017-12-22T13:35:27.249Z,26.50
2017-12-22T13:37:54.864Z,25.98
2017-12-22T13:40:22.446Z,27.70
2017-12-22T13:42:50.953Z,30.40
2017-12-22T13:45:18.538Z,26.98
2017-12-22T13:47:46.882Z,28.77
2017-12-22T13:50:14.513Z,26.58
2017-12-22T13:52:42.098Z,28.12
2017-12-22T13:55:09.681Z,28.02
2017-12-22T13:57:37.316Z,26.77
2017-12-22T14:00:04.896Z,29.27
2017-12-22T14:02:32.477Z,27.65
2017-12-22T14:05:00.887Z,30.83
2017-12-22T14:07:28.471Z,27.42
2017-12-22T14:09:56.091Z,30.23
2017-12-22T14:12:23.689Z,31.90
2017-12-22T14:14:51.264Z,32.05
2017-12-22T14:17:19.046Z,32.03
2017-12-22T14:19:47.473Z,30.45
2017-12-22T14:22:15.049Z,32.70
2017-12-22T14:24:42.658Z,31.15
2017-12-22T14:27:10.242Z,31.83
2017-12-22T14:29:37.822Z,34.33
2017-12-22T14:32:05.453Z,31.58
2017-12-22T14:34:33.029Z,31.48
2017-12-22T14:37:00.609Z,34.15
2017-12-22T14:39:28.234Z,32.53
2017-12-22T14:41:55.822Z,31.37
2017-12-22T14:44:23.497Z,32.70
2017-12-22T14:46:51.101Z,32.17
2017-12-22T14:49:18.725Z,27.70
2017-12-22T14:51:46.305Z,25.80
2017-12-22T14:54:14.654Z,26.15
2017-12-22T14:56:42.282Z,26.90
2017-12-22T14:59:09.911Z,24.33
2017-12-22T15:01:38.229Z,25.30
2017-12-22T15:04:06.809Z,28.73
2017-12-22T15:06:34.389Z,25.95
2017-12-22T15:09:02.833Z,26.15
2017-12-22T15:11:30.434Z,24.83
2017-12-22T15:13:58.037Z,26.35
2017-12-22T15:16:25.617Z,26.00
2017-12-22T15:18:53.202Z,25.02
2017-12-22T15:21:20.807Z,26.55
2017-12-22T15:23:48.450Z,24.42
2017-12-22T15:26:16.794Z,25.83
2017-12-22T15:28:44.373Z,23.15
2017-12-22T15:31:12.747Z,23.10
2017-12-22T15:33:41.123Z,25.37
2017-12-22T15:36:09.474Z,24.15
2017-12-22T15:38:37.077Z,25.20
2017-12-22T15:41:04.658Z,24.60
2017-12-22T15:43:32.240Z,24.40
2017-12-22T15:45:59.854Z,23.67
2017-12-22T15:48:28.198Z,22.98
2017-12-22T15:50:55.781Z,24.00
2017-12-22T15:53:24.182Z,24.98
2017-12-22T15:55:51.768Z,26.05
2017-12-22T15:58:19.350Z,19.52
2017-12-22T16:00:46.969Z,25.90
2017-12-22T16:03:14.550Z,23.40
2017-12-22T16:05:42.138Z,24.40
2017-12-22T16:08:10.525Z,24.92
2017-12-22T16:10:38.867Z,23.12
2017-12-22T16:13:06.445Z,24.70
2017-12-22T16:15:34.178Z,23.52
2017-12-22T16:18:01.762Z,24.25
2017-12-22T16:20:29.341Z,24.85
2017-12-22T16:22:56.969Z,25.30
2017-12-22T16:25:24.554Z,24.15
2017-12-22T16:27:52.897Z,25.35
2017-12-22T16:30:20.530Z,25.35
2017-12-22T16:32:48.107Z,26.55
2017-12-22T16:35:15.697Z,25.40
2017-12-22T16:37:44.067Z,26.83
2017-12-22T16:40:11.641Z,28.00
2017-12-22T16:42:40.037Z,29.30
2017-12-22T16:45:08.382Z,28.02
2017-12-22T16:47:35.971Z,27.90
2017-12-22T16:50:04.528Z,27.50
2017-12-22T16:52:32.886Z,27.42
2017-12-22T16:55:00.466Z,25.98
2017-12-22T16:57:28.238Z,29.52
2017-12-22T16:59:56.577Z,28.77
2017-12-22T17:02:24.161Z,26.85
2017-12-22T17:04:51.834Z,27.33
2017-12-22T17:07:20.902Z,26.33
2017-12-22T17:09:48.480Z,23.87
2017-12-22T17:12:16.110Z,22.30
2017-12-22T17:14:43.694Z,26.23
2017-12-22T17:17:11.315Z,25.52
2017-12-22T17:19:38.922Z,22.40
2017-12-22T17:22:07.278Z,23.17
2017-12-22T17:24:34.853Z,24.87
2017-12-22T17:27:03.249Z,24.80
2017-12-22T17:29:31.593Z,22.62
2017-12-22T17:31:59.175Z,24.00
2017-12-22T17:34:27.545Z,23.70
2017-12-22T17:36:55.901Z,24.27
2017-12-22T17:39:23.542Z,24.15
2017-12-22T17:41:51.118Z,25.50
2017-12-22T17:44:18.693Z,24.70
2017-12-22T17:46:46.299Z,23.17
2017-12-22T17:49:13.877Z,26.48
2017-12-22T17:51:41.458Z,23.87
2017-12-22T17:54:09.062Z,23.02
2017-12-22T17:56:36.645Z,24.48
2017-12-22T17:59:04.410Z,22.67
2017-12-22T18:01:32.017Z,23.30
2017-12-22T18:04:00.369Z,23.02
2017-12-22T18:06:27.946Z,23.83
2017-12-22T18:08:55.553Z,25.12
2017-12-22T18:11:23.186Z,25.92
2017-12-22T18:13:51.529Z,25.45
2017-12-22T18:16:19.113Z,25.05
2017-12-22T18:18:47.497Z,23.90
2017-12-22T18:21:17.641Z,24.87
2017-12-22T18:23:45.222Z,25.33
2017-12-22T18:26:12.837Z,28.02
2017-12-22T18:28:40.413Z,26.60
2017-12-22T18:31:07.998Z,27.55
2017-12-22T18:33:35.603Z,28.58
2017-12-22T18:36:03.951Z,26.30
2017-12-22T18:38:31.590Z,26.67
2017-12-22T18:40:59.165Z,26.58
2017-12-22T18:43:26.746Z,28.45
2017-12-22T18:45:54.372Z,25.95
2017-12-22T18:48:21.951Z,27.17
2017-12-22T18:50:49.538Z,28.85
2017-12-22T18:53:17.905Z,28.45
2017-12-22T18:55:46.249Z,30.05
2017-12-22T18:58:13.830Z,27.65
2017-12-22T19:00:41.491Z,29.80
2017-12-22T19:03:15.076Z,29.40
2017-12-22T19:05:42.681Z,28.25
2017-12-22T19:08:10.253Z,28.52
2017-12-22T19:10:37.855Z,27.83
2017-12-22T19:13:05.494Z,26.15
2017-12-22T19:15:33.083Z,26.75
2017-12-22T19:18:00.661Z,27.08
2017-12-22T19:20:29.057Z,29.48
2017-12-22T19:22:56.634Z,26.70
2017-12-22T19:25:24.212Z,26.30
2017-12-22T19:27:51.808Z,26.35
2017-12-22T19:30:20.170Z,29.35
2017-12-22T19:32:47.758Z,26.73
2017-12-22T19:35:16.117Z,29.40
2017-12-22T19:37:44.466Z,30.45
2017-12-22T19:40:12.085Z,28.60
2017-12-22T19:42:39.662Z,27.70
2017-12-22T19:45:07.242Z,26.52
2017-12-22T19:47:34.866Z,28.20
2017-12-22T19:50:02.442Z,36.20
2017-12-22T19:52:30.018Z,33.25
2017-12-22T19:54:57.641Z,28.67
2017-12-22T19:57:25.217Z,29.65
2017-12-22T19:59:52.794Z,32.22
2017-12-22T20:02:20.504Z,31.98
2017-12-22T20:04:48.091Z,36.10
2017-12-22T20:07:15.673Z,32.03
2017-12-22T20:09:43.301Z,33.40
2017-12-22T20:12:10.883Z,32.13
2017-12-22T20:14:38.470Z,33.38
2017-12-22T20:17:06.117Z,32.78
2017-12-22T20:19:33.677Z,30.23
2017-12-22T20:22:01.318Z,31.05
2017-12-22T20:24:28.898Z,33.33
2017-12-22T20:26:56.492Z,31.62
2017-12-22T20:29:24.866Z,32.58
2017-12-22T20:31:53.213Z,32.42
2017-12-22T20:34:20.851Z,31.65
2017-12-22T20:36:48.430Z,33.15
2017-12-22T20:39:16.267Z,33.45
2017-12-22T20:41:43.878Z,32.22
2017-12-22T20:44:12.218Z,31.52
2017-12-22T20:46:39.797Z,33.15
2017-12-22T20:49:07.557Z,33.25
2017-12-22T20:51:35.137Z,33.60
2017-12-22T20:54:03.481Z,33.78
2017-12-22T20:56:31.129Z,36.30
2017-12-22T20:58:58.704Z,33.63
2017-12-22T21:01:26.290Z,33.95
2017-12-22T21:03:54.660Z,34.10
2017-12-22T21:06:23.053Z,35.05
2017-12-22T21:08:51.414Z,33.20
2017-12-22T21:11:19.761Z,32.97
2017-12-22T21:13:47.562Z,32.80
2017-12-22T21:16:15.908Z,31.12
2017-12-22T21:18:43.482Z,34.30
2017-12-22T21:21:11.082Z,33.80
2017-12-22T21:23:38.710Z,32.80
2017-12-22T21:26:07.058Z,34.00
2017-12-22T21:28:34.646Z,33.60
2017-12-22T21:31:03.058Z,32.63
2017-12-22T21:33:30.740Z,33.50
2017-12-22T21:35:58.327Z,32.38
2017-12-22T21:38:25.914Z,34.45
2017-12-22T21:40:54.287Z,34.03
2017-12-22T21:43:22.680Z,33.58
2017-12-22T21:45:50.253Z,31.25
2017-12-22T21:48:17.838Z,35.15
2017-12-22T21:50:45.485Z,31.40
2017-12-22T21:53:13.058Z,33.05
2017-12-22T21:55:40.642Z,32.58
2017-12-22T21:58:08.240Z,31.98
2017-12-22T22:00:35.821Z,31.80
2017-12-22T22:03:03.426Z,32.25
2017-12-22T22:05:31.798Z,29.90
2017-12-22T22:07:59.369Z,27.02
2017-12-22T22:10:27.761Z,29.37
2017-12-22T22:12:55.358Z,30.90
2017-12-22T22:15:22.937Z,27.65
2017-12-22T22:17:50.554Z,30.08
2017-12-22T22:20:18.193Z,28.40
2017-12-22T22:22:46.537Z,27.98
2017-12-22T22:25:14.119Z,28.15
2017-12-22T22:27:42.489Z,27.87
2017-12-22T22:30:10.837Z,29.90
2017-12-22T22:32:38.433Z,30.42
2017-12-22T22:35:06.810Z,29.98
2017-12-22T22:37:35.161Z,29.92
2017-12-22T22:40:02.799Z,30.67
2017-12-22T22:42:30.381Z,30.27
2017-12-22T22:44:57.961Z,30.12
2017-12-22T22:47:26.350Z,28.42
2017-12-22T22:49:54.737Z,29.70
2017-12-22T22:52:22.334Z,30.48
2017-12-22T22:54:49.945Z,27.90
2017-12-22T22:57:18.293Z,27.17
2017-12-22T22:59:45.869Z,29.15
2017-12-22T23:02:14.233Z,26.35
2017-12-22T23:04:42.593Z,31.25
2017-12-22T23:07:10.166Z,29.98
2017-12-22T23:09:38.562Z,27.80
2017-12-22T23:12:06.909Z,27.42
2017-12-22T23:14:34.492Z,28.65
2017-12-22T23:17:02.886Z,30.08
2017-12-22T23:19:30.466Z,28.25
2017-12-22T23:21:58.041Z,29.50
2017-12-22T23:24:25.655Z,28.12
2017-12-22T23:26:54.020Z,28.45
2017-12-22T23:29:21.598Z,25.58
